Time;durP1;ratioP1;P1;durP2;ratioP2;P2;SDS_P1;SDS_P2;PMS_P1;PMS_P2;Temp;Humidity;BMP_temperature;BMP_pressure;BME280_temperature;BME280_humidity;BME280_pressure;Samples;Min_cycle;Max_cycle;Signal;HPM_P1;HPM_P2
2023/01/19 00:00:04;;;;;;;16.58;8.90;;;2.90;69.00;;;;;;2305195;54;21009;-73
2023/01/19 00:02:30;;;;;;;16.02;8.75;;;2.90;69.10;;;;;;2305244;54;20949;-75
2023/01/19 00:04:58;;;;;;;17.48;8.77;;;2.90;69.20;;;;;;2542069;53;21487;-74
2023/01/19 00:07:24;;;;;;;16.77;8.57;;;2.90;69.20;;;;;;2305104;53;20952;-74
2023/01/19 00:09:50;;;;;;;13.40;8.02;;;3.00;69.30;;;;;;2441612;53;20980;-73
2023/01/19 00:12:17;;;;;;;18.42;10.45;;;3.00;69.30;;;;;;2305353;53;21060;-74
2023/01/19 00:14:43;;;;;;;19.98;10.07;;;3.00;69.30;;;;;;2305496;54;21108;-72
2023/01/19 00:17:11;;;;;;;16.23;9.20;;;3.00;69.40;;;;;;2305479;54;21092;-73
2023/01/19 00:19:37;;;;;;;15.77;9.25;;;3.00;69.30;;;;;;2513792;53;21560;-74
2023/01/19 00:22:04;;;;;;;20.00;10.82;;;3.00;69.30;;;;;;2327458;53;20942;-75
2023/01/19 00:24:31;;;;;;;19.08;9.88;;;3.00;69.40;;;;;;2547770;53;20972;-75
2023/01/19 00:26:58;;;;;;;16.42;9.85;;;3.00;69.40;;;;;;2305357;54;20961;-74
2023/01/19 00:29:29;;;;;;;15.30;9.32;;;3.10;69.50;;;;;;2305079;54;21008;-74
2023/01/19 00:31:59;;;;;;;20.62;10.30;;;3.10;69.50;;;;;;2305243;54;20964;-75
2023/01/19 00:34:25;;;;;;;19.83;10.18;;;3.10;69.50;;;;;;2308774;54;20933;-73
2023/01/19 00:36:54;;;;;;;19.17;9.77;;;3.00;69.40;;;;;;2305236;54;20941;-75
2023/01/19 00:39:20;;;;;;;19.27;9.77;;;3.10;69.50;;;;;;2305091;54;20965;-74
2023/01/19 00:44:31;;;;;;;18.80;9.75;;;3.10;69.50;;;;;;2305285;54;21097;-75
2023/01/19 00:46:57;;;;;;;16.25;9.32;;;3.10;69.40;;;;;;2442337;53;21108;-75
2023/01/19 00:49:24;;;;;;;18.20;9.52;;;3.10;69.40;;;;;;2304957;54;21441;-73
2023/01/19 00:51:50;;;;;;;18.52;9.27;;;3.10;69.40;;;;;;2424006;53;21033;-73
2023/01/19 00:54:17;;;;;;;20.55;9.68;;;3.10;69.30;;;;;;2305393;54;21021;-74
2023/01/19 00:56:45;;;;;;;19.10;10.43;;;3.10;69.40;;;;;;2506082;53;21020;-76
2023/01/19 00:59:21;;;;;;;15.18;9.57;;;3.10;69.30;;;;;;2305442;54;21075;-76
2023/01/19 01:01:48;;;;;;;19.80;10.20;;;3.10;69.20;;;;;;2305323;54;21958;-74
2023/01/19 01:04:14;;;;;;;18.60;9.93;;;3.10;69.30;;;;;;2305017;54;20941;-73
2023/01/19 01:06:45;;;;;;;18.62;10.65;;;3.20;69.40;;;;;;2304311;54;20944;-73
2023/01/19 01:09:13;;;;;;;18.40;9.70;;;3.10;69.30;;;;;;2305341;54;21056;-74
2023/01/19 01:11:45;;;;;;;16.75;10.07;;;3.10;69.30;;;;;;2305044;54;20996;-75
2023/01/19 01:14:13;;;;;;;18.65;10.13;;;3.20;69.50;;;;;;2316340;53;21001;-74
2023/01/19 01:16:39;;;;;;;18.02;9.95;;;3.20;69.50;;;;;;2305002;54;21855;-73
2023/01/19 01:19:06;;;;;;;16.87;9.90;;;3.20;69.60;;;;;;2305648;54;21883;-73
2023/01/19 01:21:37;;;;;;;18.67;9.57;;;3.20;69.70;;;;;;2305288;54;20948;-75
2023/01/19 01:24:04;;;;;;;16.10;9.55;;;3.10;69.50;;;;;;2304819;53;22288;-74
2023/01/19 01:26:30;;;;;;;14.50;8.52;;;3.20;69.70;;;;;;2309634;53;20952;-75
2023/01/19 01:28:56;;;;;;;18.12;9.05;;;3.20;69.70;;;;;;2325012;53;21533;-72
2023/01/19 01:31:24;;;;;;;15.88;9.05;;;3.20;69.80;;;;;;2304520;54;20981;-74
2023/01/19 01:33:51;;;;;;;14.00;8.43;;;3.30;69.80;;;;;;2305618;54;20934;-75
2023/01/19 01:36:20;;;;;;;15.13;9.55;;;3.30;69.80;;;;;;2307170;53;20941;-76
2023/01/19 01:38:46;;;;;;;17.52;9.38;;;3.30;69.80;;;;;;2342747;53;21080;-76
2023/01/19 01:41:12;;;;;;;17.48;9.25;;;3.30;69.80;;;;;;2306061;54;20973;-75
2023/01/19 01:43:50;;;;;;;14.73;8.85;;;3.30;69.70;;;;;;2305026;54;21320;-75
2023/01/19 01:46:16;;;;;;;16.98;9.25;;;3.40;69.80;;;;;;2305437;54;20924;-73
2023/01/19 01:49:44;;;;;;;13.70;8.27;;;3.40;69.80;;;;;;2406390;53;21970;-73
2023/01/19 01:52:11;;;;;;;15.50;8.88;;;3.40;69.80;;;;;;2305408;54;21024;-73
2023/01/19 01:54:37;;;;;;;16.00;7.97;;;3.40;69.70;;;;;;2305300;54;20948;-74
2023/01/19 01:57:04;;;;;;;15.25;8.70;;;3.40;69.70;;;;;;2441488;53;22141;-74
2023/01/19 01:59:37;;;;;;;14.60;8.13;;;3.50;69.80;;;;;;2318989;53;20993;-75
2023/01/19 02:04:53;;;;;;;16.08;8.57;;;3.50;69.80;;;;;;2544593;53;21020;-76
2023/01/19 02:15:43;;;;;;;14.68;8.10;;;3.60;69.80;;;;;;2451089;53;21170;-72
2023/01/19 02:18:09;;;;;;;17.20;8.07;;;3.60;69.70;;;;;;2329948;54;20983;-73
2023/01/19 02:20:36;;;;;;;14.73;8.40;;;3.60;69.70;;;;;;2305470;54;20955;-73
2023/01/19 02:23:04;;;;;;;17.95;8.93;;;3.60;69.70;;;;;;2306276;54;21024;-76
2023/01/19 02:25:31;;;;;;;16.70;8.98;;;3.60;69.70;;;;;;2305571;54;21112;-72
2023/01/19 02:27:57;;;;;;;14.50;8.27;;;3.60;69.60;;;;;;2308623;54;21338;-75
2023/01/19 02:30:24;;;;;;;18.35;9.13;;;3.60;69.60;;;;;;2307302;54;21059;-75
2023/01/19 02:32:51;;;;;;;15.50;8.38;;;3.70;69.70;;;;;;2328992;53;20982;-75
2023/01/19 02:35:21;;;;;;;16.87;8.23;;;3.70;69.70;;;;;;2306545;53;21032;-74
2023/01/19 02:37:47;;;;;;;16.65;8.52;;;3.70;69.70;;;;;;2310896;53;21100;-75
2023/01/19 02:40:15;;;;;;;14.75;8.23;;;3.70;69.70;;;;;;2305970;54;20972;-76
2023/01/19 02:42:47;;;;;;;13.82;8.15;;;3.70;69.70;;;;;;2305541;54;20944;-73
2023/01/19 02:45:14;;;;;;;13.07;7.47;;;3.70;69.60;;;;;;2306125;54;20957;-75
2023/01/19 02:47:48;;;;;;;13.98;8.40;;;3.70;69.50;;;;;;2304732;54;20944;-75
2023/01/19 02:50:48;;;;;;;15.23;8.55;;;3.70;70.20;;;;;;2304882;54;21994;-75
2023/01/19 02:54:40;;;;;;;13.07;7.60;;;3.70;69.30;;;;;;2304865;53;21518;-73
2023/01/19 02:57:43;;;;;;;12.73;7.07;;;3.70;69.20;;;;;;2304442;54;20977;-73
2023/01/19 03:00:31;;;;;;;14.70;7.80;;;3.80;69.20;;;;;;2304799;54;21103;-73
2023/01/19 03:03:17;;;;;;;14.52;7.82;;;3.80;69.40;;;;;;2307439;54;21024;-76
2023/01/19 03:06:35;;;;;;;13.43;7.28;;;3.80;69.20;;;;;;2305469;54;21080;-73
2023/01/19 03:09:27;;;;;;;12.07;6.97;;;3.80;68.80;;;;;;2304464;53;20984;-75
2023/01/19 03:12:18;;;;;;;14.55;7.35;;;3.80;69.10;;;;;;2304768;54;20988;-76
2023/01/19 03:14:45;;;;;;;12.65;6.53;;;3.70;69.10;;;;;;2321462;53;20938;-72
2023/01/19 03:17:11;;;;;;;15.30;7.80;;;3.70;69.10;;;;;;2312445;53;21135;-73
2023/01/19 03:19:47;;;;;;;13.60;7.45;;;3.70;69.10;;;;;;2304534;54;20973;-73
2023/01/19 03:22:23;;;;;;;13.73;6.90;;;3.70;69.00;;;;;;2461790;53;20972;-74
2023/01/19 03:24:49;;;;;;;13.62;7.35;;;3.70;69.00;;;;;;2303950;54;20949;-74
2023/01/19 03:27:33;;;;;;;12.13;6.65;;;3.70;69.10;;;;;;2515046;53;20988;-73
2023/01/19 03:30:04;;;;;;;12.27;6.72;;;3.70;68.80;;;;;;2303961;54;20952;-73
2023/01/19 03:32:39;;;;;;;12.13;6.75;;;3.70;68.90;;;;;;2304400;54;20961;-74
2023/01/19 03:35:15;;;;;;;10.35;6.00;;;3.70;68.90;;;;;;2341794;53;21026;-73
2023/01/19 03:37:43;;;;;;;12.07;6.60;;;3.60;68.80;;;;;;2311842;53;21450;-74
2023/01/19 03:40:10;;;;;;;11.25;5.90;;;3.60;68.90;;;;;;2304496;54;21050;-75
2023/01/19 03:42:36;;;;;;;12.02;6.45;;;3.60;68.90;;;;;;2333607;53;20975;-74
2023/01/19 03:45:05;;;;;;;14.65;6.30;;;3.60;68.90;;;;;;2304249;54;20985;-72
2023/01/19 03:47:34;;;;;;;10.52;6.22;;;3.60;68.90;;;;;;2304358;54;20956;-73
2023/01/19 03:50:01;;;;;;;12.20;7.03;;;3.60;68.80;;;;;;2305806;53;21400;-75
2023/01/19 03:52:28;;;;;;;12.40;6.62;;;3.60;68.80;;;;;;2342841;54;21812;-73
2023/01/19 03:54:54;;;;;;;13.10;5.97;;;3.60;68.70;;;;;;2305252;54;20941;-75
2023/01/19 03:57:21;;;;;;;10.20;5.55;;;3.60;68.80;;;;;;2305201;54;20996;-75
2023/01/19 03:59:48;;;;;;;15.75;6.05;;;3.60;68.70;;;;;;2304937;54;20969;-73
2023/01/19 04:02:14;;;;;;;10.75;5.37;;;3.60;68.80;;;;;;2305355;54;22100;-74
2023/01/19 04:04:41;;;;;;;9.93;5.57;;;3.60;68.80;;;;;;2304398;54;21131;-72
2023/01/19 04:07:09;;;;;;;9.90;5.35;;;3.50;68.70;;;;;;2305235;54;20965;-74
2023/01/19 04:09:35;;;;;;;9.40;5.30;;;3.50;68.70;;;;;;2305121;54;20909;-73
2023/01/19 04:12:02;;;;;;;9.13;4.90;;;3.50;68.60;;;;;;2305496;54;21779;-73
2023/01/19 04:14:29;;;;;;;10.02;5.00;;;3.50;68.60;;;;;;2305136;54;21088;-74
2023/01/19 04:16:55;;;;;;;9.38;5.37;;;3.50;68.60;;;;;;2361544;53;21775;-74
2023/01/19 04:19:24;;;;;;;10.27;5.15;;;3.50;68.60;;;;;;2407488;53;20964;-73
2023/01/19 04:21:50;;;;;;;9.20;5.62;;;3.50;68.60;;;;;;2305119;53;22054;-72
2023/01/19 04:24:16;;;;;;;11.23;5.85;;;3.50;68.60;;;;;;2305533;54;20999;-73
2023/01/19 04:26:43;;;;;;;11.45;5.65;;;3.50;68.50;;;;;;2325685;53;21133;-73
2023/01/19 04:29:12;;;;;;;11.80;5.53;;;3.40;68.50;;;;;;2312633;53;21037;-72
2023/01/19 04:31:40;;;;;;;10.75;5.40;;;3.40;68.50;;;;;;2305326;54;21036;-73
2023/01/19 04:34:06;;;;;;;10.85;5.05;;;3.40;68.50;;;;;;2304799;54;21103;-74
2023/01/19 04:36:32;;;;;;;9.70;4.80;;;3.40;68.50;;;;;;2324018;53;20958;-71
2023/01/19 04:38:58;;;;;;;11.30;4.85;;;3.40;68.50;;;;;;2557105;53;22082;-73
2023/01/19 04:41:25;;;;;;;8.18;4.45;;;3.40;68.50;;;;;;2306032;53;21381;-75
2023/01/19 04:43:51;;;;;;;8.95;4.45;;;3.40;68.50;;;;;;2304176;54;20936;-73
2023/01/19 04:46:17;;;;;;;8.60;4.65;;;3.30;68.30;;;;;;2304847;54;20932;-74
2023/01/19 04:48:44;;;;;;;8.57;4.72;;;3.30;68.40;;;;;;2471626;53;21961;-74
2023/01/19 04:51:10;;;;;;;10.35;5.55;;;3.30;68.30;;;;;;2479005;53;21060;-73
2023/01/19 04:53:39;;;;;;;8.38;4.82;;;3.30;68.40;;;;;;2330229;53;20998;-75
2023/01/19 04:56:06;;;;;;;8.77;4.18;;;3.30;68.40;;;;;;2304506;54;20984;-75
2023/01/19 04:58:32;;;;;;;7.65;4.22;;;3.30;68.40;;;;;;2304704;53;22026;-76
2023/01/19 05:00:59;;;;;;;7.10;4.40;;;3.30;68.50;;;;;;2304874;54;21099;-73
2023/01/19 05:03:25;;;;;;;9.55;5.18;;;3.20;68.40;;;;;;2404781;53;20992;-73
2023/01/19 05:05:52;;;;;;;8.43;4.18;;;3.20;68.40;;;;;;2310754;53;21031;-72
2023/01/19 05:08:18;;;;;;;8.40;4.55;;;3.20;68.50;;;;;;2317015;53;21384;-73
2023/01/19 05:10:50;;;;;;;8.77;4.12;;;3.20;69.20;;;;;;2305350;54;21012;-73
2023/01/19 05:13:19;;;;;;;8.02;4.25;;;3.20;68.40;;;;;;2312345;53;20985;-74
2023/01/19 05:15:49;;;;;;;8.50;4.37;;;3.20;68.40;;;;;;2304732;54;20949;-73
2023/01/19 05:18:18;;;;;;;11.20;5.03;;;3.20;68.40;;;;;;2305754;54;20954;-72
2023/01/19 05:20:44;;;;;;;8.52;4.80;;;3.20;68.40;;;;;;2304688;54;20964;-71
2023/01/19 05:23:10;;;;;;;10.15;5.00;;;3.20;68.40;;;;;;2305326;54;20996;-73
2023/01/19 05:25:38;;;;;;;7.37;3.80;;;3.10;68.30;;;;;;2543546;53;20929;-75
2023/01/19 05:28:04;;;;;;;6.75;3.80;;;3.10;68.30;;;;;;2542753;53;21517;-72
2023/01/19 05:30:30;;;;;;;9.00;4.93;;;3.10;68.40;;;;;;2304945;54;21549;-74
2023/01/19 05:32:57;;;;;;;9.20;4.97;;;3.10;68.30;;;;;;2304742;54;20928;-72
2023/01/19 05:35:24;;;;;;;9.20;4.85;;;3.10;68.40;;;;;;2379563;53;20965;-73
2023/01/19 05:38:01;;;;;;;8.48;4.97;;;3.10;68.30;;;;;;2324950;53;20934;-75
2023/01/19 05:40:27;;;;;;;8.80;4.95;;;3.10;68.30;;;;;;2314024;53;21890;-73
2023/01/19 05:42:54;;;;;;;10.95;5.03;;;3.10;68.40;;;;;;2304437;54;21011;-74
2023/01/19 05:45:20;;;;;;;9.00;4.90;;;3.10;68.30;;;;;;2304847;54;20976;-73
2023/01/19 05:47:47;;;;;;;8.35;4.93;;;3.00;68.20;;;;;;2329967;53;20914;-74
2023/01/19 05:50:14;;;;;;;9.15;5.07;;;3.00;68.30;;;;;;2304988;54;21979;-74
2023/01/19 05:52:40;;;;;;;10.35;4.78;;;3.00;68.40;;;;;;2308856;54;21005;-71
2023/01/19 05:55:07;;;;;;;8.45;4.70;;;3.00;68.40;;;;;;2342659;54;21083;-75
2023/01/19 05:57:33;;;;;;;9.20;5.28;;;3.00;68.40;;;;;;2305003;54;20953;-75
2023/01/19 06:00:01;;;;;;;10.23;5.70;;;3.00;68.40;;;;;;2282332;55;20965;-73
2023/01/19 06:02:28;;;;;;;11.57;5.65;;;3.00;68.40;;;;;;2305812;54;21507;-73
2023/01/19 06:04:55;;;;;;;10.63;6.05;;;3.00;68.40;;;;;;2304370;54;21092;-73
2023/01/19 06:07:21;;;;;;;11.65;6.03;;;3.00;68.50;;;;;;2543961;53;21084;-72
2023/01/19 06:09:50;;;;;;;9.40;5.28;;;3.00;68.50;;;;;;2304317;54;21020;-71
2023/01/19 06:12:17;;;;;;;8.68;4.97;;;2.90;68.60;;;;;;2305250;54;20953;-74
2023/01/19 06:14:43;;;;;;;11.75;5.32;;;3.00;68.80;;;;;;2304548;53;20964;-76
2023/01/19 06:17:09;;;;;;;8.38;4.30;;;2.90;68.80;;;;;;2503083;53;21008;-73
2023/01/19 06:19:36;;;;;;;9.90;5.87;;;3.00;69.00;;;;;;2304544;54;20996;-74
2023/01/19 06:22:02;;;;;;;9.32;4.93;;;3.00;69.10;;;;;;2304484;54;20945;-74
2023/01/19 06:24:29;;;;;;;11.00;5.57;;;3.00;69.20;;;;;;2312912;53;22036;-74
2023/01/19 06:26:55;;;;;;;9.45;5.20;;;3.00;69.30;;;;;;2322254;53;20988;-75
2023/01/19 06:29:21;;;;;;;9.07;4.53;;;3.00;69.50;;;;;;2305263;54;21138;-72
2023/01/19 06:31:48;;;;;;;8.93;5.00;;;3.10;69.60;;;;;;2304265;54;21355;-72
2023/01/19 06:34:14;;;;;;;10.27;5.55;;;3.10;69.60;;;;;;2304979;54;20949;-73
2023/01/19 06:36:41;;;;;;;8.15;5.20;;;3.10;69.70;;;;;;2519697;53;21006;-74
2023/01/19 06:39:08;;;;;;;10.05;5.30;;;3.10;69.80;;;;;;2320374;53;21008;-73
2023/01/19 06:41:34;;;;;;;8.90;5.45;;;3.20;69.90;;;;;;2305034;54;21914;-73
2023/01/19 06:44:01;;;;;;;8.90;5.00;;;3.20;69.90;;;;;;2323460;53;20922;-74
2023/01/19 06:46:27;;;;;;;9.32;4.97;;;3.20;69.90;;;;;;2390290;53;22035;-74
2023/01/19 06:48:53;;;;;;;11.20;5.50;;;3.30;70.10;;;;;;2323196;53;21845;-74
2023/01/19 06:51:20;;;;;;;9.68;4.80;;;3.30;70.00;;;;;;2528723;53;21040;-75
2023/01/19 06:53:47;;;;;;;9.85;4.93;;;3.30;70.00;;;;;;2304668;54;20948;-72
2023/01/19 06:56:13;;;;;;;9.95;5.12;;;3.40;70.10;;;;;;2305303;54;21314;-75
2023/01/19 06:58:41;;;;;;;8.23;4.50;;;3.40;70.00;;;;;;2305650;54;20960;-74
2023/01/19 07:01:08;;;;;;;8.82;4.78;;;3.50;70.00;;;;;;2503809;53;21547;-72
2023/01/19 07:03:34;;;;;;;10.45;4.80;;;3.50;70.00;;;;;;2378252;53;21023;-74
2023/01/19 07:06:01;;;;;;;9.45;4.55;;;3.50;70.00;;;;;;2323659;53;21582;-74
2023/01/19 07:08:36;;;;;;;7.80;4.60;;;3.50;70.00;;;;;;2483420;53;21167;-73
2023/01/19 07:11:07;;;;;;;7.43;4.30;;;3.60;70.00;;;;;;2325706;54;21076;-73
2023/01/19 07:13:34;;;;;;;8.25;4.55;;;3.60;70.00;;;;;;2305726;54;20937;-75
2023/01/19 07:16:11;;;;;;;8.68;4.90;;;3.60;69.90;;;;;;2331023;53;20957;-73
2023/01/19 07:18:38;;;;;;;7.37;4.12;;;3.70;69.90;;;;;;2544690;53;20949;-73
2023/01/19 07:21:04;;;;;;;9.00;4.18;;;3.70;69.90;;;;;;2544515;53;21065;-74
2023/01/19 07:23:34;;;;;;;8.68;4.60;;;3.70;69.90;;;;;;2335028;53;21483;-73
2023/01/19 07:26:03;;;;;;;8.60;4.57;;;3.70;69.80;;;;;;2316774;53;20940;-74
2023/01/19 07:28:29;;;;;;;7.75;4.43;;;3.70;69.80;;;;;;2332436;53;20913;-73
2023/01/19 07:30:56;;;;;;;6.95;3.67;;;3.80;69.90;;;;;;2314406;54;21032;-74
2023/01/19 07:33:24;;;;;;;9.60;3.87;;;3.80;69.90;;;;;;2314670;54;21484;-73
2023/01/19 07:35:59;;;;;;;8.77;4.10;;;3.80;69.80;;;;;;2330846;53;20915;-75
2023/01/19 07:38:26;;;;;;;8.57;4.00;;;3.80;69.80;;;;;;2322167;53;20968;-75
2023/01/19 07:40:59;;;;;;;7.78;3.95;;;3.90;69.90;;;;;;2314406;54;21537;-75
2023/01/19 07:43:25;;;;;;;8.50;4.15;;;3.90;69.90;;;;;;2522172;53;20941;-73
2023/01/19 07:45:55;;;;;;;8.10;4.32;;;3.90;69.90;;;;;;2554453;53;20933;-74
2023/01/19 07:48:22;;;;;;;7.53;4.47;;;3.90;69.90;;;;;;2314819;54;20948;-73
2023/01/19 07:51:16;;;;;;;7.18;4.00;;;3.90;69.80;;;;;;2582213;53;20966;-73
2023/01/19 07:53:43;;;;;;;7.70;4.47;;;4.00;69.70;;;;;;2340257;53;20934;-75
2023/01/19 07:56:10;;;;;;;9.43;4.70;;;4.00;69.80;;;;;;2315194;54;20956;-74
2023/01/19 07:58:36;;;;;;;8.13;4.15;;;4.00;69.80;;;;;;2555421;53;20957;-74
2023/01/19 08:01:10;;;;;;;10.27;4.28;;;4.00;69.80;;;;;;2314826;54;20957;-73
2023/01/19 08:03:37;;;;;;;8.65;4.15;;;4.10;69.80;;;;;;2314924;54;21016;-75
2023/01/19 08:06:04;;;;;;;7.75;4.22;;;4.10;69.80;;;;;;2356758;53;20936;-73
2023/01/19 08:08:34;;;;;;;7.47;3.87;;;4.10;69.80;;;;;;2373520;53;20965;-74
2023/01/19 08:11:00;;;;;;;7.03;3.90;;;4.10;69.70;;;;;;2314441;54;21768;-73
2023/01/19 08:13:38;;;;;;;10.02;4.40;;;4.10;69.70;;;;;;2314928;54;21768;-75
2023/01/19 08:16:05;;;;;;;7.60;3.97;;;4.10;69.70;;;;;;2314487;54;20953;-75
2023/01/19 08:18:32;;;;;;;8.73;4.22;;;4.20;69.80;;;;;;2314700;54;20996;-74
2023/01/19 08:20:59;;;;;;;9.45;4.28;;;4.20;69.70;;;;;;2314740;54;20992;-73
2023/01/19 08:23:26;;;;;;;7.53;4.18;;;4.20;69.80;;;;;;2314767;54;21009;-75
2023/01/19 08:25:53;;;;;;;11.25;4.87;;;4.20;69.70;;;;;;2337015;53;20946;-74
2023/01/19 08:28:20;;;;;;;9.68;4.85;;;4.20;69.70;;;;;;2317118;53;20952;-73
2023/01/19 08:30:52;;;;;;;9.07;4.35;;;4.30;69.70;;;;;;2554514;53;20933;-72
2023/01/19 08:33:19;;;;;;;8.63;4.43;;;4.30;69.70;;;;;;2314214;54;21475;-75
2023/01/19 08:35:50;;;;;;;7.53;4.20;;;4.30;69.70;;;;;;2434812;53;20929;-74
2023/01/19 08:38:17;;;;;;;8.02;4.65;;;4.30;69.60;;;;;;2410578;53;20944;-73
2023/01/19 08:40:43;;;;;;;9.43;4.05;;;4.30;69.70;;;;;;2314477;54;21045;-74
2023/01/19 08:43:13;;;;;;;10.48;5.03;;;4.30;69.60;;;;;;2554801;53;21005;-73
2023/01/19 08:45:49;;;;;;;11.15;5.00;;;4.40;69.60;;;;;;2314454;54;21014;-74
2023/01/19 08:48:18;;;;;;;7.65;4.37;;;4.40;69.70;;;;;;2554481;53;20981;-75
2023/01/19 08:50:47;;;;;;;8.82;4.60;;;4.40;69.70;;;;;;2314377;54;21005;-73
2023/01/19 08:53:13;;;;;;;8.27;4.22;;;4.40;69.60;;;;;;2314578;54;21001;-75
2023/01/19 08:55:39;;;;;;;8.93;4.62;;;4.40;69.60;;;;;;2314882;54;21272;-74
2023/01/19 08:58:07;;;;;;;7.12;3.70;;;4.40;69.50;;;;;;2314154;54;21434;-75
2023/01/19 09:00:36;;;;;;;7.75;4.18;;;4.50;69.70;;;;;;2314724;54;21368;-74
2023/01/19 09:03:03;;;;;;;9.07;4.30;;;4.50;69.60;;;;;;2471887;53;21683;-74
2023/01/19 09:05:34;;;;;;;7.78;4.20;;;4.50;69.70;;;;;;2314922;54;21008;-75
2023/01/19 09:08:01;;;;;;;11.23;5.45;;;4.50;69.70;;;;;;2313843;54;20932;-76
2023/01/19 09:10:34;;;;;;;8.32;4.00;;;4.50;69.60;;;;;;2314695;54;21004;-74
2023/01/19 09:13:04;;;;;;;8.77;4.37;;;4.60;69.70;;;;;;2314117;54;21488;-73
2023/01/19 09:15:32;;;;;;;6.65;4.00;;;4.60;69.60;;;;;;2326629;53;21810;-74
2023/01/19 09:17:59;;;;;;;9.45;4.10;;;4.60;69.60;;;;;;2331295;53;21420;-75
2023/01/19 09:20:26;;;;;;;9.63;4.35;;;4.60;69.60;;;;;;2328057;53;21517;-76
2023/01/19 09:22:53;;;;;;;9.23;4.22;;;4.60;69.60;;;;;;2314397;54;20945;-75
2023/01/19 09:25:20;;;;;;;7.05;4.10;;;4.60;69.60;;;;;;2554487;53;21392;-75
2023/01/19 09:27:46;;;;;;;9.18;4.00;;;4.60;69.50;;;;;;2554447;53;21846;-75
2023/01/19 09:30:13;;;;;;;7.95;4.30;;;4.70;69.70;;;;;;2315992;54;20948;-76
2023/01/19 09:32:39;;;;;;;8.57;4.60;;;4.70;69.70;;;;;;2430487;53;21469;-75
2023/01/19 09:35:06;;;;;;;9.50;5.07;;;4.70;69.60;;;;;;2369448;53;21493;-75
2023/01/19 09:37:32;;;;;;;7.70;4.28;;;4.80;69.70;;;;;;2316507;54;21378;-75
2023/01/19 09:39:58;;;;;;;9.00;4.60;;;4.80;69.60;;;;;;2339670;53;21470;-74
2023/01/19 09:42:44;;;;;;;10.60;5.30;;;4.80;69.70;;;;;;2389607;53;21005;-74
2023/01/19 09:45:17;;;;;;;10.55;5.12;;;4.80;69.20;;;;;;2412620;53;20948;-74
2023/01/19 09:47:44;;;;;;;10.27;5.32;;;4.80;69.40;;;;;;2479221;53;20925;-75
2023/01/19 09:50:25;;;;;;;8.82;4.90;;;4.80;69.40;;;;;;2314577;54;21356;-75
2023/01/19 09:52:56;;;;;;;9.03;4.90;;;4.80;69.40;;;;;;2547704;53;20925;-74
2023/01/19 09:55:24;;;;;;;8.27;4.68;;;4.90;70.10;;;;;;2314638;54;21382;-76
2023/01/19 09:57:51;;;;;;;7.32;4.40;;;4.90;69.50;;;;;;2392163;53;21465;-75
2023/01/19 10:00:17;;;;;;;8.35;4.47;;;4.90;69.60;;;;;;2314750;54;21013;-74
2023/01/19 10:02:59;;;;;;;7.55;4.05;;;4.90;69.60;;;;;;2418137;53;20953;-75
2023/01/19 10:05:48;;;;;;;8.68;4.72;;;5.00;69.40;;;;;;2314674;54;21036;-75
2023/01/19 10:08:26;;;;;;;9.52;4.40;;;5.00;69.30;;;;;;2314432;54;21419;-75
2023/01/19 10:10:53;;;;;;;9.90;4.57;;;5.00;70.30;;;;;;2373219;53;21434;-74
2023/01/19 10:14:03;;;;;;;9.30;4.65;;;5.00;69.60;;;;;;2316517;54;20957;-74
2023/01/19 10:16:43;;;;;;;8.70;4.97;;;5.10;69.10;;;;;;2314447;54;21514;-75
2023/01/19 10:19:54;;;;;;;9.75;4.87;;;5.10;69.50;;;;;;2313828;54;20993;-75
2023/01/19 10:22:24;;;;;;;7.90;4.75;;;5.10;68.90;;;;;;2518125;53;21482;-75
2023/01/19 10:24:53;;;;;;;8.48;4.75;;;5.10;69.40;;;;;;2314463;54;21478;-75
2023/01/19 10:27:28;;;;;;;7.22;4.28;;;5.10;69.40;;;;;;2314304;54;20913;-74
2023/01/19 10:29:54;;;;;;;7.95;4.53;;;5.10;69.40;;;;;;2313915;54;21619;-75
2023/01/19 10:32:39;;;;;;;8.00;4.68;;;5.10;69.30;;;;;;2314333;54;21003;-75
2023/01/19 10:35:24;;;;;;;10.30;4.97;;;5.20;69.00;;;;;;2431124;53;21489;-75
2023/01/19 10:37:59;;;;;;;8.73;4.82;;;5.20;69.10;;;;;;2465960;53;20924;-75
2023/01/19 10:40:39;;;;;;;10.65;4.53;;;5.20;69.10;;;;;;2314577;54;20949;-75
2023/01/19 10:43:28;;;;;;;10.38;5.10;;;5.20;68.90;;;;;;2490877;53;21052;-75
2023/01/19 10:45:55;;;;;;;8.60;5.40;;;5.20;68.70;;;;;;2554391;53;20992;-75
2023/01/19 10:48:38;;;;;;;7.75;4.75;;;5.20;69.00;;;;;;2314503;54;20909;-75
2023/01/19 10:51:05;;;;;;;8.35;4.90;;;5.20;68.70;;;;;;2314717;54;21080;-75
2023/01/19 10:53:31;;;;;;;8.43;5.07;;;5.20;69.00;;;;;;2314481;54;21419;-76
2023/01/19 10:56:20;;;;;;;11.00;5.40;;;5.20;69.00;;;;;;2339997;53;21453;-75
2023/01/19 10:58:46;;;;;;;9.85;5.22;;;5.20;68.90;;;;;;2314605;54;20988;-75
2023/01/19 11:01:23;;;;;;;9.52;5.57;;;5.20;69.20;;;;;;2314019;54;20941;-75
2023/01/19 11:03:52;;;;;;;9.63;5.40;;;5.20;69.00;;;;;;2314018;54;20981;-74
2023/01/19 11:06:23;;;;;;;8.25;5.20;;;5.20;69.20;;;;;;2333086;54;20928;-76
2023/01/19 11:08:50;;;;;;;9.18;5.37;;;5.20;69.30;;;;;;2314992;54;20933;-75
2023/01/19 11:11:17;;;;;;;9.18;5.37;;;5.20;69.40;;;;;;2314396;54;21308;-76
2023/01/19 11:13:46;;;;;;;9.00;5.28;;;5.20;69.60;;;;;;2314396;54;20994;-75
2023/01/19 11:16:30;;;;;;;10.05;5.18;;;5.30;70.10;;;;;;2314157;54;20972;-75
2023/01/19 11:18:57;;;;;;;9.88;5.68;;;5.30;70.20;;;;;;2544235;53;21275;-75
2023/01/19 11:21:26;;;;;;;8.63;5.35;;;5.30;70.70;;;;;;2314556;54;20980;-76
2023/01/19 11:24:01;;;;;;;10.63;5.68;;;5.40;71.00;;;;;;2314363;54;20925;-76
2023/01/19 11:26:38;;;;;;;10.75;5.07;;;5.40;71.20;;;;;;2312441;54;21293;-76
2023/01/19 11:29:04;;;;;;;9.05;5.50;;;5.50;71.40;;;;;;2359220;53;21053;-76
2023/01/19 11:31:34;;;;;;;10.23;5.47;;;5.60;71.70;;;;;;2315997;54;20953;-76
2023/01/19 11:34:01;;;;;;;9.00;6.03;;;5.60;71.70;;;;;;2313674;54;20949;-76
2023/01/19 11:36:33;;;;;;;8.10;4.80;;;5.70;71.90;;;;;;2314347;54;21289;-76
2023/01/19 11:39:11;;;;;;;8.70;5.30;;;5.80;72.10;;;;;;2313716;54;21317;-76
2023/01/19 11:41:37;;;;;;;9.13;4.80;;;5.90;72.10;;;;;;2314647;54;21332;-76
2023/01/19 11:44:23;;;;;;;9.82;5.50;;;6.00;72.00;;;;;;2390285;53;20952;-76
2023/01/19 11:47:00;;;;;;;7.82;4.70;;;6.00;71.10;;;;;;2377079;53;21032;-78
2023/01/19 11:49:46;;;;;;;9.35;4.80;;;6.10;71.10;;;;;;2569553;53;21850;-78
2023/01/19 11:53:44;;;;;;;9.95;5.65;;;6.10;71.00;;;;;;2320901;53;20913;-76
2023/01/19 11:56:12;;;;;;;10.57;4.50;;;6.20;70.90;;;;;;2377474;53;21445;-76
2023/01/19 11:58:40;;;;;;;7.10;4.53;;;6.20;70.50;;;;;;2551364;53;21017;-76
2023/01/19 12:01:29;;;;;;;9.02;4.70;;;6.20;70.50;;;;;;2314363;54;21000;-76
2023/01/19 12:05:18;;;;;;;9.00;4.55;;;6.30;70.20;;;;;;2443555;53;21277;-76
2023/01/19 12:07:44;;;;;;;7.40;4.32;;;6.30;69.40;;;;;;2314272;54;21028;-79
2023/01/19 12:11:13;;;;;;;7.95;4.37;;;6.30;70.40;;;;;;2438075;53;21012;-79
2023/01/19 12:13:40;;;;;;;8.18;4.70;;;6.30;69.60;;;;;;2314201;54;21050;-78
2023/01/19 12:16:19;;;;;;;7.97;4.78;;;6.40;70.50;;;;;;2343937;53;20940;-76
2023/01/19 12:18:57;;;;;;;7.95;4.60;;;6.40;70.00;;;;;;2506423;53;25882;-78
2023/01/19 12:21:23;;;;;;;7.87;4.65;;;6.40;70.10;;;;;;2424568;53;21392;-77
2023/01/19 12:24:11;;;;;;;8.85;4.68;;;6.40;70.20;;;;;;2326303;53;20990;-75
2023/01/19 12:26:53;;;;;;;7.93;4.72;;;6.50;70.20;;;;;;2505024;53;20968;-75
2023/01/19 12:29:21;;;;;;;6.97;3.92;;;6.50;70.20;;;;;;2554418;53;21186;-76
2023/01/19 12:32:20;;;;;;;7.60;4.20;;;6.50;70.30;;;;;;2327549;53;21037;-75
2023/01/19 12:34:50;;;;;;;8.05;4.72;;;6.60;70.00;;;;;;2563248;53;20945;-76
2023/01/19 12:44:17;;;;;;;8.20;4.60;;;6.60;70.30;;;;;;2554145;53;21127;-75
2023/01/19 12:47:19;;;;;;;7.15;3.85;;;6.80;69.10;;;;;;2488254;53;20952;-75
2023/01/19 12:49:49;;;;;;;10.68;4.25;;;6.80;69.80;;;;;;2530154;53;20988;-75
2023/01/19 12:52:46;;;;;;;7.87;4.78;;;6.80;70.40;;;;;;2435276;53;20937;-75
2023/01/19 12:55:21;;;;;;;7.70;4.47;;;6.90;69.90;;;;;;2314253;54;20957;-75
2023/01/19 12:58:33;;;;;;;6.85;4.28;;;6.90;70.20;;;;;;2377222;53;21453;-74
2023/01/19 13:01:20;;;;;;;7.78;4.50;;;6.90;69.40;;;;;;2314567;54;20925;-75
2023/01/19 13:05:59;;;;;;;8.63;4.47;;;7.00;69.90;;;;;;2492937;53;21483;-75
2023/01/19 13:08:55;;;;;;;9.60;4.35;;;7.00;69.60;;;;;;2314643;54;20913;-75
2023/01/19 13:11:21;;;;;;;7.97;3.87;;;7.10;69.40;;;;;;2421308;53;21123;-75
2023/01/19 13:14:32;;;;;;;5.87;3.92;;;7.10;70.10;;;;;;2374191;53;20997;-75
2023/01/19 13:16:59;;;;;;;8.63;4.43;;;7.10;69.50;;;;;;2317416;54;21432;-75
2023/01/19 13:19:31;;;;;;;6.15;3.78;;;7.10;70.00;;;;;;2314081;54;20981;-74
2023/01/19 13:21:57;;;;;;;6.97;4.00;;;7.20;69.90;;;;;;2314187;54;21217;-75
2023/01/19 13:24:24;;;;;;;7.15;3.92;;;7.20;70.00;;;;;;2417771;53;22478;-75
2023/01/19 13:27:02;;;;;;;7.45;4.43;;;7.20;70.00;;;;;;2554569;53;20961;-75
2023/01/19 13:29:35;;;;;;;8.75;4.82;;;7.20;69.60;;;;;;2555257;53;21327;-75
2023/01/19 13:32:16;;;;;;;7.50;4.47;;;7.20;69.70;;;;;;2316728;54;20905;-75
2023/01/19 13:34:53;;;;;;;7.97;4.65;;;7.30;69.80;;;;;;2313452;54;20968;-75
2023/01/19 13:37:21;;;;;;;7.30;4.32;;;7.30;69.60;;;;;;2338096;53;21033;-74
2023/01/19 13:39:48;;;;;;;7.03;4.53;;;7.30;69.70;;;;;;2478953;53;21422;-75